createdAt,value
2023-08-15T12:59:52.081Z,-145.28
2023-08-15T13:02:19.867Z,-145.28
2023-08-15T13:04:46.680Z,-145.28
2023-08-15T13:07:13.052Z,-145.28
2023-08-15T13:09:39.470Z,-145.28
2023-08-15T13:12:06.194Z,-145.28
2023-08-15T13:14:33.870Z,-145.28
2023-08-15T13:17:04.755Z,-145.28
2023-08-15T13:19:34.201Z,-145.28
2023-08-15T13:22:00.638Z,-145.28
2023-08-15T13:24:27.235Z,-145.28
2023-08-15T13:26:53.663Z,-145.28
2023-08-15T13:29:20.112Z,-145.28
2023-08-15T13:31:46.521Z,-145.28
2023-08-15T13:34:13.017Z,-145.28
2023-08-15T14:50:24.397Z,28.55
2023-08-15T14:52:50.820Z,28.31
2023-08-15T14:55:17.303Z,28.39
2023-08-15T14:57:43.744Z,28.68
2023-08-15T15:00:10.448Z,29.20
2023-08-15T15:02:38.626Z,29.07
2023-08-15T15:05:06.472Z,29.06
2023-08-15T15:07:33.233Z,28.98
2023-08-15T15:10:00.360Z,28.79
2023-08-15T15:12:42.649Z,28.49
2023-08-15T15:15:11.937Z,28.19
2023-08-15T15:17:38.524Z,28.01
2023-08-15T15:20:05.918Z,27.87
2023-08-15T15:22:35.784Z,27.72
2023-08-15T15:27:48.744Z,28.82
2023-08-15T15:30:15.162Z,29.19
2023-08-15T15:32:41.583Z,30.16
2023-08-15T15:35:08.282Z,31.11
2023-08-15T15:37:34.708Z,32.00
2023-08-15T15:40:01.294Z,32.62
2023-08-15T15:42:27.725Z,33.73
2023-08-15T15:44:54.327Z,33.89
2023-08-15T15:47:21.024Z,33.90
2023-08-15T15:49:47.679Z,33.65
2023-08-15T15:52:14.213Z,32.80
2023-08-15T15:54:40.677Z,32.11
2023-08-15T15:57:07.097Z,30.77
2023-08-15T15:59:33.683Z,29.72
2023-08-15T16:02:00.138Z,29.10
2023-08-15T16:04:26.529Z,28.77
2023-08-15T16:06:53.013Z,28.47
2023-08-15T16:09:19.359Z,28.19
2023-08-15T16:11:45.758Z,28.08
2023-08-15T16:14:12.223Z,29.73
2023-08-15T16:16:38.708Z,31.14
2023-08-15T16:19:05.088Z,30.78
2023-08-15T16:21:31.643Z,31.67
2023-08-15T16:23:58.020Z,32.43
2023-08-15T16:26:24.572Z,32.55
2023-08-15T16:28:51.136Z,31.24
2023-08-15T16:31:17.599Z,31.87
2023-08-15T16:33:44.054Z,32.44
2023-08-15T16:36:10.484Z,32.29
2023-08-15T16:38:36.895Z,31.29
2023-08-15T16:41:03.249Z,30.02
2023-08-15T16:43:29.607Z,29.21
2023-08-15T16:45:56.030Z,28.68
2023-08-15T16:48:22.531Z,-145.28
2023-08-15T16:50:49.064Z,-145.28
2023-08-15T16:53:15.564Z,-145.28
2023-08-15T16:55:43.675Z,-145.28
2023-08-15T16:58:11.047Z,28.09
2023-08-15T17:00:37.496Z,26.54
2023-08-15T17:03:04.439Z,26.49
2023-08-15T17:05:31.210Z,26.40
2023-08-15T17:07:57.796Z,26.49
2023-08-15T17:10:25.255Z,26.62
2023-08-15T17:12:54.860Z,26.80
2023-08-15T17:15:21.792Z,26.91
2023-08-15T17:17:48.385Z,26.95
2023-08-15T17:20:14.893Z,26.89
2023-08-15T17:22:41.289Z,26.81
2023-08-15T17:25:07.932Z,26.70
2023-08-15T17:27:34.422Z,26.60
2023-08-15T17:30:00.851Z,26.52
2023-08-15T17:32:27.939Z,-145.28
2023-08-15T17:34:54.454Z,-145.28
2023-08-15T17:37:20.838Z,-145.28
2023-08-15T17:39:47.247Z,-145.28
2023-08-15T17:42:13.640Z,-145.28
2023-08-15T17:44:40.230Z,-145.28
2023-08-15T17:47:06.916Z,-145.28
2023-08-15T17:49:33.713Z,-145.28
2023-08-15T17:52:00.558Z,-145.28
2023-08-15T17:54:27.166Z,-145.28
2023-08-15T17:56:55.005Z,-145.28
2023-08-15T17:59:24.204Z,-145.28
2023-08-15T18:01:50.587Z,-145.28
2023-08-15T18:04:17.056Z,-145.28
2023-08-15T18:06:43.560Z,-145.28
2023-08-15T18:09:15.377Z,-145.28
2023-08-15T18:11:42.242Z,-145.28
2023-08-15T18:14:08.733Z,-145.28
2023-08-15T18:16:35.171Z,-145.28
2023-08-15T18:19:12.339Z,-145.28
2023-08-15T18:21:38.739Z,26.52
2023-08-15T18:24:05.192Z,24.24
2023-08-15T18:26:31.657Z,24.14
2023-08-15T18:28:58.244Z,24.09
2023-08-15T18:31:24.882Z,24.05
2023-08-15T18:33:51.306Z,24.02
2023-08-15T18:36:17.672Z,24.09
2023-08-15T18:38:44.132Z,24.08
2023-08-15T18:41:10.561Z,24.02
2023-08-15T18:43:37.043Z,23.99
2023-08-15T18:46:03.652Z,23.91
2023-08-15T18:48:30.609Z,23.80
2023-08-15T18:50:57.161Z,23.67
2023-08-15T18:53:23.806Z,23.56
2023-08-15T18:55:50.201Z,23.43
2023-08-15T18:58:16.652Z,23.29
2023-08-15T19:00:43.198Z,23.17
2023-08-15T19:03:10.281Z,23.10
2023-08-15T19:05:36.853Z,23.00
2023-08-15T19:08:03.238Z,22.93
2023-08-15T19:10:29.708Z,22.89
2023-08-15T19:12:56.143Z,22.80
2023-08-15T19:15:22.635Z,22.73
2023-08-15T19:17:50.028Z,22.65
2023-08-15T19:20:21.704Z,22.61
2023-08-15T19:22:48.552Z,22.61
2023-08-15T19:25:19.290Z,22.59
2023-08-15T19:27:45.712Z,22.55
2023-08-15T19:30:13.093Z,22.50
2023-08-15T19:32:39.773Z,22.41
2023-08-15T19:35:06.583Z,22.33
2023-08-15T19:37:37.867Z,22.25
2023-08-15T19:40:06.242Z,22.17
2023-08-15T19:42:32.656Z,22.12
2023-08-15T19:44:59.106Z,22.04
2023-08-15T19:47:25.617Z,21.96
2023-08-15T19:49:52.040Z,21.87
2023-08-15T19:52:25.044Z,21.77
2023-08-15T19:54:51.678Z,21.66
2023-08-15T19:57:18.070Z,21.62
2023-08-15T19:59:44.452Z,21.60
2023-08-15T20:02:12.159Z,21.56
2023-08-15T20:04:38.799Z,21.56
2023-08-15T20:07:05.218Z,21.42
2023-08-15T20:09:31.646Z,21.39
2023-08-15T20:11:58.279Z,21.42
2023-08-15T20:14:24.854Z,21.42
2023-08-15T20:16:51.345Z,21.42
2023-08-15T20:19:20.024Z,21.39
2023-08-15T20:21:46.386Z,21.30
2023-08-15T20:24:12.767Z,21.23
2023-08-15T20:26:39.149Z,21.13
2023-08-15T20:29:05.614Z,21.05
2023-08-15T20:31:32.063Z,20.96
2023-08-15T20:33:59.583Z,20.91
2023-08-15T20:36:26.181Z,20.86
2023-08-15T20:38:52.607Z,20.82
2023-08-15T20:41:20.131Z,20.82
2023-08-15T20:43:46.558Z,20.80
2023-08-15T20:46:13.003Z,20.80
2023-08-15T20:48:39.487Z,20.82
2023-08-15T20:51:05.868Z,20.87
2023-08-15T20:53:32.215Z,20.92
2023-08-15T20:55:58.656Z,20.94
2023-08-15T20:58:25.013Z,20.91
2023-08-15T21:00:51.931Z,20.85
2023-08-15T21:03:18.669Z,20.81
2023-08-15T21:05:45.321Z,20.74
2023-08-15T21:08:11.773Z,20.70
2023-08-15T21:10:38.139Z,20.65
2023-08-15T21:13:04.691Z,20.60
2023-08-15T21:15:31.048Z,20.56
2023-08-15T21:17:57.518Z,20.48
2023-08-15T21:20:24.312Z,20.42
2023-08-15T21:22:51.435Z,20.42
2023-08-15T21:25:17.897Z,20.36
2023-08-15T21:27:44.234Z,20.34
2023-08-15T21:30:10.871Z,20.30
2023-08-15T21:32:37.226Z,20.27
2023-08-15T21:35:03.949Z,20.25
2023-08-15T21:37:30.315Z,20.25
2023-08-15T21:39:56.666Z,20.23
2023-08-15T21:42:23.054Z,20.20
2023-08-15T21:44:49.500Z,20.16
2023-08-15T21:47:15.929Z,20.09
2023-08-15T21:49:42.456Z,20.07
2023-08-15T21:52:09.599Z,20.03
2023-08-15T21:54:36.030Z,20.04
2023-08-15T21:57:06.320Z,20.04
2023-08-15T21:59:33.192Z,20.00
2023-08-15T22:01:59.849Z,19.98
2023-08-15T22:04:26.315Z,19.93
2023-08-15T22:06:52.767Z,19.90
2023-08-15T22:09:19.146Z,19.86
2023-08-15T22:11:45.703Z,19.74
2023-08-15T22:14:12.196Z,19.67
2023-08-15T22:16:38.762Z,19.61
2023-08-15T22:19:05.291Z,19.54
2023-08-15T22:21:31.712Z,19.49
2023-08-15T22:23:58.059Z,19.44
2023-08-15T22:26:24.424Z,19.30
2023-08-15T22:28:50.813Z,19.34
2023-08-15T22:31:17.294Z,19.29
2023-08-15T22:33:43.656Z,19.24
2023-08-15T22:36:10.006Z,19.23
2023-08-15T22:38:36.381Z,19.21
2023-08-15T22:41:02.743Z,19.17
2023-08-15T22:43:29.132Z,19.19
2023-08-15T22:45:55.548Z,19.25
2023-08-15T22:48:22.012Z,19.35
2023-08-15T22:50:48.387Z,19.52
2023-08-15T22:53:14.765Z,19.58
2023-08-15T22:55:41.104Z,19.61
2023-08-15T22:58:07.693Z,19.61
2023-08-15T23:00:34.096Z,19.66
2023-08-15T23:03:00.552Z,19.68
2023-08-15T23:05:26.969Z,19.65
2023-08-15T23:07:53.342Z,19.68
2023-08-15T23:10:19.806Z,19.70
2023-08-15T23:12:46.150Z,19.67
2023-08-15T23:15:12.547Z,19.71
2023-08-15T23:17:38.944Z,19.71
2023-08-15T23:20:05.628Z,19.69
2023-08-15T23:22:31.972Z,19.66
2023-08-15T23:24:58.347Z,19.65
2023-08-15T23:27:25.052Z,19.66
2023-08-15T23:29:51.881Z,19.63
2023-08-15T23:32:18.220Z,19.62
2023-08-15T23:34:53.342Z,19.58
2023-08-15T23:37:19.809Z,19.54
2023-08-15T23:39:46.153Z,19.48
2023-08-15T23:42:12.550Z,19.41
2023-08-15T23:44:38.952Z,19.35
2023-08-15T23:47:05.417Z,19.25
2023-08-15T23:49:31.821Z,19.33
2023-08-15T23:51:58.203Z,19.40
2023-08-15T23:54:25.318Z,19.40
2023-08-15T23:56:51.741Z,19.39
2023-08-15T23:59:18.158Z,19.34
